createdAt,value
2023-01-03T00:00:09.557Z,16.48
2023-01-03T00:00:32.285Z,16.43
2023-01-03T00:00:54.011Z,16.47
2023-01-03T00:01:16.992Z,16.45
2023-01-03T00:01:39.119Z,16.42
2023-01-03T00:02:00.925Z,16.44
2023-01-03T00:02:22.767Z,16.44
2023-01-03T00:02:45.497Z,16.31
2023-01-03T00:03:07.801Z,16.44
2023-01-03T00:03:29.396Z,16.45
2023-01-03T00:03:53.259Z,16.48
2023-01-03T00:04:16.238Z,16.50
2023-01-03T00:04:37.956Z,16.50
2023-01-03T00:04:59.934Z,16.47
2023-01-03T00:05:21.524Z,16.47
2023-01-03T00:05:44.387Z,16.47
2023-01-03T00:06:14.993Z,16.46
2023-01-03T00:06:40.394Z,16.48
2023-01-03T00:07:02.621Z,16.41
2023-01-03T00:07:35.120Z,16.49
2023-01-03T00:07:58.372Z,16.39
2023-01-03T00:08:21.737Z,16.48
2023-01-03T00:08:43.923Z,16.51
2023-01-03T00:09:14.263Z,16.51
2023-01-03T00:09:37.079Z,16.43
2023-01-03T00:09:58.839Z,16.53
2023-01-03T00:10:25.477Z,16.53
2023-01-03T00:10:49.035Z,16.54
2023-01-03T00:11:18.003Z,16.55
2023-01-03T00:12:00.840Z,16.55
2023-01-03T00:12:30.721Z,16.55
2023-01-03T00:12:54.366Z,16.55
2023-01-03T00:13:17.791Z,16.53
2023-01-03T00:13:43.320Z,16.54
2023-01-03T00:14:05.947Z,16.55
2023-01-03T00:14:32.944Z,16.47
2023-01-03T00:14:55.957Z,16.47
2023-01-03T00:15:19.404Z,16.48
2023-01-03T00:15:43.247Z,16.48
2023-01-03T00:16:16.220Z,16.47
2023-01-03T00:16:38.469Z,16.48
2023-01-03T00:17:04.345Z,16.46
2023-01-03T00:17:26.593Z,16.48
2023-01-03T00:17:50.283Z,16.45
2023-01-03T00:18:13.252Z,16.46
2023-01-03T00:18:35.857Z,16.48
2023-01-03T00:18:57.953Z,16.42
2023-01-03T00:19:20.106Z,16.39
2023-01-03T00:19:45.658Z,16.10
2023-01-03T00:20:10.308Z,16.43
2023-01-03T00:20:33.960Z,16.37
2023-01-03T00:20:55.605Z,16.32
2023-01-03T00:21:18.435Z,16.41
2023-01-03T00:21:42.714Z,16.46
2023-01-03T00:22:05.758Z,16.40
2023-01-03T00:22:34.058Z,16.43
2023-01-03T00:22:55.937Z,16.42
2023-01-03T00:23:17.832Z,16.33
2023-01-03T00:23:40.934Z,16.41
2023-01-03T00:24:05.651Z,16.42
2023-01-03T00:24:28.632Z,16.28
2023-01-03T00:24:52.605Z,16.43
2023-01-03T00:25:15.322Z,16.45
2023-01-03T00:25:38.332Z,16.43
2023-01-03T00:26:09.812Z,16.45
2023-01-03T00:26:32.267Z,16.46
2023-01-03T00:26:54.422Z,16.49
2023-01-03T00:27:21.401Z,16.51
2023-01-03T00:27:43.382Z,16.48
2023-01-03T00:28:06.797Z,16.48
2023-01-03T00:28:28.422Z,16.40
2023-01-03T00:28:57.050Z,16.46
2023-01-03T00:29:20.234Z,16.46
2023-01-03T00:29:43.073Z,16.46
2023-01-03T00:30:09.393Z,16.48
2023-01-03T00:30:32.335Z,16.48
2023-01-03T00:30:54.692Z,16.48
2023-01-03T00:31:16.465Z,16.47
2023-01-03T00:31:39.316Z,16.43
2023-01-03T00:32:04.472Z,16.48
2023-01-03T00:32:27.872Z,16.46
2023-01-03T00:32:50.325Z,16.46
2023-01-03T00:33:14.779Z,16.46
2023-01-03T00:33:38.373Z,16.32
2023-01-03T00:34:00.415Z,16.38
2023-01-03T00:34:22.302Z,16.41
2023-01-03T00:34:49.610Z,16.42
2023-01-03T00:35:11.579Z,16.44
2023-01-03T00:35:33.636Z,16.39
2023-01-03T00:35:55.905Z,16.37
2023-01-03T00:36:18.718Z,16.40
2023-01-03T00:36:41.562Z,16.40
2023-01-03T00:37:03.956Z,16.37
2023-01-03T00:37:25.661Z,16.39
2023-01-03T00:37:48.205Z,16.40
2023-01-03T00:38:09.914Z,16.42
2023-01-03T00:38:33.057Z,16.46
2023-01-03T00:38:54.687Z,16.29
2023-01-03T00:39:17.600Z,16.20
2023-01-03T00:39:39.767Z,16.41
2023-01-03T00:40:01.426Z,16.11
2023-01-03T00:40:23.200Z,16.43
2023-01-03T00:40:44.830Z,16.42
2023-01-03T00:41:09.790Z,16.45
2023-01-03T00:41:31.661Z,16.33
2023-01-03T00:41:54.197Z,16.48
2023-01-03T00:42:15.977Z,16.43
2023-01-03T00:42:52.630Z,16.46
2023-01-03T00:43:30.382Z,16.46
2023-01-03T00:43:52.229Z,16.47
2023-01-03T00:44:14.239Z,16.48
2023-01-03T00:44:36.868Z,16.48
2023-01-03T00:44:58.491Z,16.48
2023-01-03T00:45:25.309Z,16.49
2023-01-03T00:45:47.378Z,16.47
2023-01-03T00:46:11.860Z,16.45
2023-01-03T00:46:34.103Z,16.38
2023-01-03T00:46:55.794Z,16.32
2023-01-03T00:47:17.468Z,16.35
2023-01-03T00:47:42.797Z,16.34
2023-01-03T00:48:04.910Z,16.34
2023-01-03T00:48:27.290Z,16.35
2023-01-03T00:48:49.935Z,16.25
2023-01-03T00:49:12.882Z,16.35
2023-01-03T00:49:36.845Z,16.35
2023-01-03T00:50:00.182Z,16.36
2023-01-03T00:50:23.477Z,16.34
2023-01-03T00:50:46.813Z,16.34
2023-01-03T00:51:15.029Z,16.34
2023-01-03T00:51:39.340Z,16.37
2023-01-03T00:52:02.998Z,16.40
2023-01-03T00:52:31.927Z,16.36
2023-01-03T00:52:59.171Z,16.37
2023-01-03T00:53:22.100Z,16.42
2023-01-03T00:53:47.473Z,16.40
2023-01-03T00:54:11.248Z,16.41
2023-01-03T00:54:35.584Z,16.41
2023-01-03T00:54:57.763Z,16.42
2023-01-03T00:55:20.862Z,16.42
2023-01-03T00:55:46.579Z,16.42
2023-01-03T00:56:12.381Z,16.42
2023-01-03T00:56:38.541Z,16.48
2023-01-03T00:57:01.488Z,16.37
2023-01-03T00:57:24.447Z,16.49
2023-01-03T00:57:46.226Z,16.50
2023-01-03T00:58:07.890Z,16.43
2023-01-03T00:58:30.346Z,16.45
2023-01-03T00:58:53.183Z,16.48
2023-01-03T00:59:16.648Z,16.39
2023-01-03T00:59:39.777Z,16.49
2023-01-03T01:00:02.357Z,16.45
2023-01-03T01:00:25.948Z,16.46
2023-01-03T01:00:47.610Z,16.43
2023-01-03T01:01:11.155Z,16.42
2023-01-03T01:01:43.977Z,16.49
2023-01-03T01:02:09.173Z,16.52
2023-01-03T01:02:31.114Z,16.51
2023-01-03T01:02:53.403Z,16.47
2023-01-03T01:03:17.970Z,16.52
2023-01-03T01:03:42.738Z,16.53
2023-01-03T01:04:08.945Z,16.56
2023-01-03T01:04:31.722Z,16.52
2023-01-03T01:04:54.793Z,16.56
2023-01-03T01:05:16.484Z,16.55
2023-01-03T01:05:38.966Z,16.55
2023-01-03T01:06:00.603Z,16.56
2023-01-03T01:06:24.974Z,16.58
2023-01-03T01:06:48.420Z,16.60
2023-01-03T01:07:10.072Z,16.59
2023-01-03T01:07:32.644Z,16.62
2023-01-03T01:07:54.283Z,16.60
2023-01-03T01:08:15.937Z,16.58
2023-01-03T01:08:37.572Z,16.56
2023-01-03T01:09:01.955Z,16.55
2023-01-03T01:09:25.246Z,16.55
2023-01-03T01:09:46.893Z,16.53
2023-01-03T01:10:09.323Z,16.52
2023-01-03T01:10:31.874Z,16.53
2023-01-03T01:11:02.695Z,16.48
2023-01-03T01:11:25.714Z,16.49
2023-01-03T01:11:48.755Z,16.51
2023-01-03T01:12:10.431Z,16.47
2023-01-03T01:12:32.095Z,16.42
2023-01-03T01:12:55.412Z,16.47
2023-01-03T01:13:17.032Z,16.43
2023-01-03T01:13:40.290Z,16.45
2023-01-03T01:14:02.005Z,16.42
2023-01-03T01:14:26.681Z,16.37
2023-01-03T01:14:49.394Z,16.36
2023-01-03T01:15:11.920Z,16.38
2023-01-03T01:15:35.105Z,16.36
2023-01-03T01:16:01.428Z,16.35
2023-01-03T01:16:52.743Z,16.39
2023-01-03T01:17:20.677Z,16.42
2023-01-03T01:17:44.140Z,16.39
2023-01-03T01:18:06.848Z,16.36
2023-01-03T01:18:28.642Z,16.24
2023-01-03T01:18:53.884Z,16.33
2023-01-03T01:19:16.169Z,16.31
2023-01-03T01:19:40.962Z,16.30
2023-01-03T01:20:02.580Z,16.31
2023-01-03T01:20:24.190Z,16.31
2023-01-03T01:20:45.817Z,16.33
2023-01-03T01:21:09.941Z,16.27
2023-01-03T01:21:32.765Z,16.31
2023-01-03T01:21:54.465Z,16.33
2023-01-03T01:22:16.200Z,16.35
2023-01-03T01:22:37.889Z,16.34
2023-01-03T01:23:00.422Z,16.31
2023-01-03T01:23:22.081Z,16.23
2023-01-03T01:23:44.568Z,16.29
2023-01-03T01:24:08.185Z,16.32
2023-01-03T01:24:32.490Z,16.19
2023-01-03T01:24:54.072Z,16.23
2023-01-03T01:25:15.773Z,16.27
2023-01-03T01:25:38.341Z,16.31
2023-01-03T01:26:00.365Z,16.28
2023-01-03T01:26:23.939Z,16.27
2023-01-03T01:26:46.883Z,16.26
2023-01-03T01:27:08.584Z,16.28
2023-01-03T01:27:31.592Z,16.31
2023-01-03T01:27:53.171Z,16.32
2023-01-03T01:28:14.862Z,16.32
2023-01-03T01:28:37.565Z,16.31
2023-01-03T01:28:59.370Z,16.26
2023-01-03T01:29:21.387Z,16.21
2023-01-03T01:29:43.050Z,16.28
2023-01-03T01:30:06.194Z,16.25
2023-01-03T01:30:27.869Z,16.27
2023-01-03T01:30:50.898Z,16.26
2023-01-03T01:31:16.101Z,16.26
2023-01-03T01:31:38.698Z,16.28
2023-01-03T01:32:01.659Z,16.23
2023-01-03T01:32:23.378Z,16.27
2023-01-03T01:32:45.985Z,16.26
2023-01-03T01:33:07.677Z,16.14
2023-01-03T01:33:31.522Z,16.25
2023-01-03T01:33:54.501Z,16.28
2023-01-03T01:34:17.736Z,16.27
2023-01-03T01:34:39.719Z,16.22
2023-01-03T01:35:01.449Z,16.29
2023-01-03T01:35:23.060Z,16.28
2023-01-03T01:35:45.798Z,16.26
2023-01-03T01:36:08.870Z,16.23
2023-01-03T01:36:33.635Z,16.24
2023-01-03T01:36:56.531Z,16.25
2023-01-03T01:37:18.122Z,16.20
2023-01-03T01:37:39.831Z,16.17
2023-01-03T01:38:01.484Z,16.19
2023-01-03T01:38:23.196Z,16.18
2023-01-03T01:38:45.691Z,16.18
2023-01-03T01:39:11.455Z,16.12
2023-01-03T01:39:33.752Z,16.03
2023-01-03T01:39:55.320Z,16.06
2023-01-03T01:40:19.055Z,16.06
2023-01-03T01:40:41.684Z,16.06
2023-01-03T01:41:03.824Z,16.13
2023-01-03T01:41:45.193Z,16.15
2023-01-03T01:42:31.693Z,16.12
2023-01-03T01:43:11.000Z,16.14
2023-01-03T01:43:51.404Z,16.16
2023-01-03T01:44:49.307Z,16.09
2023-01-03T01:45:14.470Z,15.96
2023-01-03T01:45:36.270Z,16.07
2023-01-03T01:46:04.442Z,16.04
2023-01-03T01:46:30.060Z,16.03
2023-01-03T01:46:53.697Z,16.04
2023-01-03T01:47:20.584Z,16.03
2023-01-03T01:47:50.650Z,15.99
2023-01-03T01:48:14.364Z,15.92
2023-01-03T01:48:37.026Z,15.95
2023-01-03T01:49:03.249Z,15.91
2023-01-03T01:49:26.133Z,15.98
2023-01-03T01:49:53.109Z,15.95
2023-01-03T01:50:24.582Z,15.89
2023-01-03T01:50:50.632Z,15.94
2023-01-03T01:51:13.220Z,15.97
2023-01-03T01:51:36.254Z,15.94
2023-01-03T01:51:58.995Z,15.91
2023-01-03T01:52:22.126Z,15.92
2023-01-03T01:52:51.848Z,15.93
2023-01-03T01:53:18.496Z,15.94
2023-01-03T01:53:42.745Z,15.92
2023-01-03T01:54:06.845Z,15.99
2023-01-03T01:54:29.066Z,15.99
2023-01-03T01:54:53.829Z,15.91
2023-01-03T01:55:18.835Z,15.94
2023-01-03T01:55:43.440Z,15.92
2023-01-03T01:56:09.477Z,15.91
2023-01-03T01:56:35.170Z,15.95
2023-01-03T01:56:57.825Z,15.95
2023-01-03T01:57:22.468Z,15.96
2023-01-03T01:57:44.642Z,15.92
2023-01-03T01:58:08.909Z,15.94
2023-01-03T01:58:35.471Z,15.92
2023-01-03T01:58:57.727Z,15.94
2023-01-03T01:59:19.440Z,15.94
2023-01-03T01:59:42.366Z,15.92
2023-01-03T02:00:05.084Z,15.84
2023-01-03T02:00:26.919Z,15.97
2023-01-03T02:00:48.613Z,15.94
2023-01-03T02:01:14.746Z,15.89
2023-01-03T02:01:37.022Z,15.90
2023-01-03T02:01:58.969Z,15.92
2023-01-03T02:02:23.204Z,15.87
2023-01-03T02:02:49.347Z,15.93
2023-01-03T02:03:11.757Z,15.92
2023-01-03T02:03:33.655Z,15.94
2023-01-03T02:04:01.160Z,15.96
2023-01-03T02:04:26.942Z,15.97
2023-01-03T02:04:52.301Z,15.97
2023-01-03T02:05:17.012Z,15.90
2023-01-03T02:05:44.112Z,15.89
2023-01-03T02:06:09.177Z,15.90
2023-01-03T02:06:32.569Z,15.90
2023-01-03T02:06:56.380Z,15.87
2023-01-03T02:07:20.656Z,15.89
2023-01-03T02:07:44.314Z,15.91
2023-01-03T02:08:06.200Z,15.88
2023-01-03T02:08:28.146Z,15.90
2023-01-03T02:08:50.125Z,15.93
2023-01-03T02:09:14.442Z,15.92
2023-01-03T02:09:38.557Z,15.88
2023-01-03T02:10:00.743Z,15.83
2023-01-03T02:10:36.390Z,15.73
2023-01-03T02:11:20.435Z,15.78
2023-01-03T02:12:14.398Z,15.81
2023-01-03T02:12:58.897Z,15.80
2023-01-03T02:13:31.988Z,15.80
2023-01-03T02:14:02.854Z,15.64
2023-01-03T02:14:45.956Z,15.78
2023-01-03T02:15:17.981Z,15.79
2023-01-03T02:15:58.242Z,15.77
2023-01-03T02:16:48.464Z,15.73
2023-01-03T02:17:18.428Z,15.78
2023-01-03T02:17:54.579Z,15.78
2023-01-03T02:18:37.901Z,15.74
2023-01-03T02:19:16.739Z,15.66
2023-01-03T02:20:05.043Z,15.69
2023-01-03T02:20:52.062Z,15.71
2023-01-03T02:21:54.161Z,15.75
2023-01-03T02:22:45.968Z,15.73
2023-01-03T02:23:37.064Z,15.80
2023-01-03T02:24:31.283Z,15.82
2023-01-03T02:25:37.290Z,15.81
2023-01-03T02:26:23.595Z,15.82
2023-01-03T02:26:54.008Z,15.78
2023-01-03T02:27:42.091Z,15.81
2023-01-03T02:28:45.010Z,15.76
2023-01-03T02:29:45.802Z,15.73
2023-01-03T02:30:32.692Z,15.74
2023-01-03T02:30:58.669Z,15.74
2023-01-03T02:31:25.508Z,15.77
2023-01-03T02:31:55.260Z,15.75
2023-01-03T02:32:23.790Z,15.57
2023-01-03T02:32:52.687Z,15.75
2023-01-03T02:33:24.118Z,15.76
2023-01-03T02:33:54.875Z,15.65
2023-01-03T02:34:22.142Z,15.81
2023-01-03T02:34:50.440Z,15.81
2023-01-03T02:35:18.900Z,15.83
2023-01-03T02:35:53.764Z,15.81
2023-01-03T02:36:25.550Z,15.80
2023-01-03T02:36:59.124Z,15.78
2023-01-03T02:37:31.417Z,15.77
2023-01-03T02:38:02.332Z,15.76
2023-01-03T02:38:29.363Z,15.75
2023-01-03T02:38:57.953Z,15.51
2023-01-03T02:39:25.606Z,15.78
2023-01-03T02:39:54.322Z,15.77
2023-01-03T02:40:24.035Z,15.74
2023-01-03T02:40:51.504Z,15.70
2023-01-03T02:41:23.656Z,15.65
2023-01-03T02:41:48.132Z,15.55
2023-01-03T02:42:33.787Z,15.65
2023-01-03T02:42:58.848Z,15.62
2023-01-03T02:43:27.857Z,15.60
2023-01-03T02:43:54.983Z,15.58
2023-01-03T02:44:23.819Z,15.54
2023-01-03T02:44:54.525Z,15.55
2023-01-03T02:45:21.925Z,15.57
2023-01-03T02:46:02.630Z,15.54
2023-01-03T02:46:30.306Z,15.52
2023-01-03T02:46:57.941Z,15.51
2023-01-03T02:47:25.239Z,15.54
2023-01-03T02:47:52.864Z,15.55
2023-01-03T02:48:19.225Z,15.50
2023-01-03T02:48:49.414Z,15.55
2023-01-03T02:49:19.205Z,15.53
2023-01-03T02:49:45.120Z,15.53
2023-01-03T02:50:11.305Z,15.49
2023-01-03T02:50:42.473Z,15.54
2023-01-03T02:51:09.333Z,15.55
2023-01-03T02:51:36.012Z,15.50
2023-01-03T02:52:03.656Z,15.54
2023-01-03T02:52:30.673Z,15.53
2023-01-03T02:52:56.853Z,15.53
2023-01-03T02:53:25.883Z,15.49
2023-01-03T02:53:51.796Z,15.46
2023-01-03T02:54:20.429Z,15.46
2023-01-03T02:54:45.445Z,15.45
2023-01-03T02:55:15.957Z,15.46
2023-01-03T02:55:39.542Z,15.46
2023-01-03T02:56:09.755Z,15.46
2023-01-03T02:56:40.430Z,15.39
2023-01-03T02:57:08.486Z,15.41
2023-01-03T02:57:35.437Z,15.41
2023-01-03T02:58:06.801Z,15.32
2023-01-03T02:58:35.072Z,15.35
2023-01-03T02:59:01.489Z,15.37
2023-01-03T02:59:30.318Z,15.35
2023-01-03T02:59:54.487Z,15.37
2023-01-03T03:00:21.336Z,15.31
2023-01-03T03:00:48.863Z,15.37
2023-01-03T03:01:13.381Z,15.34
2023-01-03T03:01:37.272Z,15.33
2023-01-03T03:02:01.309Z,15.33
2023-01-03T03:02:26.721Z,15.32
2023-01-03T03:02:52.044Z,15.33
2023-01-03T03:03:18.205Z,15.30
2023-01-03T03:03:40.969Z,15.32
2023-01-03T03:04:03.653Z,15.25
2023-01-03T03:04:25.653Z,15.27
2023-01-03T03:04:52.429Z,15.30
2023-01-03T03:05:22.161Z,15.31
2023-01-03T03:05:50.041Z,15.33
2023-01-03T03:06:21.208Z,15.31
2023-01-03T03:06:48.604Z,15.33
2023-01-03T03:07:19.372Z,15.34
2023-01-03T03:07:41.623Z,15.35
2023-01-03T03:08:04.649Z,15.36
2023-01-03T03:08:26.453Z,15.28
2023-01-03T03:08:48.941Z,15.38
2023-01-03T03:09:11.576Z,15.37
2023-01-03T03:09:33.276Z,15.37
2023-01-03T03:10:14.649Z,15.28
2023-01-03T03:10:56.310Z,15.27
2023-01-03T03:11:36.690Z,15.34
2023-01-03T03:12:20.138Z,15.23
2023-01-03T03:13:03.477Z,15.30
2023-01-03T03:13:30.645Z,15.27
2023-01-03T03:13:57.616Z,15.25
2023-01-03T03:14:24.284Z,15.18
2023-01-03T03:14:50.117Z,15.20
2023-01-03T03:15:14.550Z,15.22
2023-01-03T03:15:42.236Z,15.15
2023-01-03T03:16:11.564Z,15.16
2023-01-03T03:16:50.200Z,15.25
2023-01-03T03:17:15.936Z,15.19
2023-01-03T03:17:40.522Z,15.27
2023-01-03T03:18:08.371Z,15.16
2023-01-03T03:18:41.957Z,15.22
2023-01-03T03:19:35.767Z,15.25
2023-01-03T03:20:16.750Z,15.23
2023-01-03T03:20:56.716Z,15.21
2023-01-03T03:21:39.232Z,15.09
2023-01-03T03:22:21.173Z,15.17
2023-01-03T03:23:06.838Z,15.11
2023-01-03T03:23:49.732Z,15.23
2023-01-03T03:24:32.882Z,15.17
2023-01-03T03:25:00.620Z,15.26
2023-01-03T03:25:28.019Z,15.28
2023-01-03T03:25:53.654Z,15.20
2023-01-03T03:26:20.933Z,15.32
2023-01-03T03:26:47.277Z,15.32
2023-01-03T03:27:31.887Z,15.35
2023-01-03T03:28:16.639Z,15.38
2023-01-03T03:28:43.553Z,15.33
2023-01-03T03:29:11.965Z,15.31
2023-01-03T03:29:34.064Z,15.34
2023-01-03T03:29:58.267Z,15.20
2023-01-03T03:30:25.019Z,15.36
2023-01-03T03:30:51.977Z,15.31
2023-01-03T03:31:18.195Z,15.34
2023-01-03T03:31:47.091Z,15.33
2023-01-03T03:32:09.004Z,15.35
2023-01-03T03:32:35.205Z,15.40
2023-01-03T03:33:01.403Z,15.43
2023-01-03T03:33:26.338Z,15.42
2023-01-03T03:33:51.886Z,15.40
2023-01-03T03:34:19.341Z,15.43
2023-01-03T03:34:43.165Z,15.41
2023-01-03T03:35:09.198Z,15.40
2023-01-03T03:35:35.492Z,15.38
2023-01-03T03:36:03.358Z,15.37
2023-01-03T03:36:32.908Z,15.32
2023-01-03T03:37:00.121Z,15.30
2023-01-03T03:37:25.916Z,15.27
2023-01-03T03:37:51.507Z,15.28
2023-01-03T03:38:18.165Z,15.28
2023-01-03T03:38:42.282Z,15.12
2023-01-03T03:39:04.712Z,15.26
2023-01-03T03:39:46.834Z,15.26
2023-01-03T03:40:28.954Z,15.27
2023-01-03T03:41:18.149Z,15.25
2023-01-03T03:42:03.295Z,15.24
2023-01-03T03:42:48.838Z,15.24
2023-01-03T03:43:39.200Z,15.24
2023-01-03T03:44:23.457Z,15.26
2023-01-03T03:45:03.142Z,15.27
2023-01-03T03:45:31.992Z,15.25
2023-01-03T03:46:02.670Z,15.32
2023-01-03T03:46:30.925Z,15.31
2023-01-03T03:47:04.282Z,15.30
2023-01-03T03:47:34.704Z,15.30
2023-01-03T03:48:04.686Z,15.29
2023-01-03T03:48:52.475Z,15.33
2023-01-03T03:49:38.703Z,15.33
2023-01-03T03:50:04.976Z,15.38
2023-01-03T03:50:29.421Z,15.38
2023-01-03T03:50:54.124Z,15.28
2023-01-03T03:51:20.803Z,15.32
2023-01-03T03:51:44.645Z,15.39
2023-01-03T03:52:10.999Z,15.41
2023-01-03T03:52:39.212Z,15.38
2023-01-03T03:53:08.562Z,15.36
2023-01-03T03:53:34.663Z,15.39
2023-01-03T03:53:57.961Z,15.36
2023-01-03T03:54:22.699Z,15.30
2023-01-03T03:54:52.643Z,15.36
2023-01-03T03:55:18.115Z,15.35
2023-01-03T03:55:49.663Z,15.32
2023-01-03T03:56:17.559Z,15.36
2023-01-03T03:56:44.030Z,15.26
2023-01-03T03:57:12.958Z,15.22
2023-01-03T03:57:39.995Z,15.27
2023-01-03T03:58:08.351Z,15.33
2023-01-03T03:58:34.251Z,15.34
2023-01-03T03:59:01.617Z,15.39
2023-01-03T03:59:27.670Z,15.41
2023-01-03T04:00:00.037Z,15.40
2023-01-03T04:00:28.801Z,15.41
2023-01-03T04:00:52.399Z,15.41
2023-01-03T04:01:19.939Z,15.39
2023-01-03T04:01:43.217Z,15.40
2023-01-03T04:02:10.919Z,15.38
2023-01-03T04:02:35.557Z,15.41
2023-01-03T04:02:59.907Z,15.41
2023-01-03T04:03:23.887Z,15.37
2023-01-03T04:03:48.781Z,15.40
2023-01-03T04:04:15.626Z,15.26
2023-01-03T04:04:42.484Z,15.42
2023-01-03T04:05:10.743Z,15.38
2023-01-03T04:05:36.613Z,15.44
2023-01-03T04:06:01.414Z,15.39
2023-01-03T04:06:28.299Z,15.42
2023-01-03T04:06:52.998Z,15.30
2023-01-03T04:07:14.670Z,15.46
2023-01-03T04:07:36.623Z,15.43
2023-01-03T04:07:59.185Z,15.43
2023-01-03T04:08:21.029Z,15.40
2023-01-03T04:08:42.944Z,15.35
2023-01-03T04:09:04.836Z,15.36
2023-01-03T04:09:27.444Z,15.38
2023-01-03T04:09:49.170Z,15.38
2023-01-03T04:10:12.002Z,15.31
2023-01-03T04:10:37.742Z,15.39
2023-01-03T04:11:06.371Z,15.41
2023-01-03T04:11:28.055Z,15.41
2023-01-03T04:11:49.630Z,15.39
2023-01-03T04:12:11.363Z,15.42
2023-01-03T04:12:34.067Z,15.40
2023-01-03T04:12:55.934Z,15.35
2023-01-03T04:13:17.617Z,15.41
2023-01-03T04:13:39.752Z,15.13
2023-01-03T04:14:02.644Z,15.39
2023-01-03T04:14:24.375Z,15.41
2023-01-03T04:14:46.155Z,15.40
2023-01-03T04:15:08.624Z,15.41
2023-01-03T04:15:31.188Z,15.39
2023-01-03T04:15:52.790Z,15.40
2023-01-03T04:16:14.490Z,15.42
2023-01-03T04:16:37.686Z,15.41
2023-01-03T04:17:00.672Z,15.39
2023-01-03T04:17:23.743Z,15.37
2023-01-03T04:17:45.383Z,15.38
2023-01-03T04:18:07.922Z,15.37
2023-01-03T04:18:29.697Z,15.35
2023-01-03T04:18:51.301Z,15.34
2023-01-03T04:19:13.019Z,15.35
2023-01-03T04:19:34.639Z,15.33
2023-01-03T04:19:57.195Z,15.29
2023-01-03T04:20:19.170Z,15.23
2023-01-03T04:20:40.759Z,15.35
2023-01-03T04:21:02.561Z,15.33
2023-01-03T04:21:24.162Z,15.36
2023-01-03T04:21:46.756Z,15.37
2023-01-03T04:22:08.412Z,15.29
2023-01-03T04:22:30.035Z,15.35
2023-01-03T04:22:51.624Z,15.36
2023-01-03T04:23:13.243Z,15.36
2023-01-03T04:23:35.843Z,15.34
2023-01-03T04:23:58.374Z,15.35
2023-01-03T04:24:22.458Z,15.32
2023-01-03T04:24:46.669Z,15.34
2023-01-03T04:25:10.904Z,15.33
2023-01-03T04:25:34.022Z,15.30
2023-01-03T04:25:56.098Z,15.32
2023-01-03T04:26:18.525Z,15.33
2023-01-03T04:26:42.014Z,15.32
2023-01-03T04:27:06.681Z,15.32
2023-01-03T04:27:31.974Z,15.31
2023-01-03T04:27:58.528Z,15.27
2023-01-03T04:28:21.624Z,15.34
2023-01-03T04:28:44.100Z,15.34
2023-01-03T04:29:07.325Z,15.34
2023-01-03T04:29:31.742Z,15.31
2023-01-03T04:29:59.625Z,15.30
2023-01-03T04:30:23.595Z,15.32
2023-01-03T04:30:47.221Z,15.31
2023-01-03T04:31:10.620Z,15.30
2023-01-03T04:31:35.120Z,15.29
2023-01-03T04:32:02.051Z,15.27
2023-01-03T04:32:28.983Z,15.26
2023-01-03T04:32:52.418Z,15.27
2023-01-03T04:33:15.973Z,15.25
2023-01-03T04:33:37.938Z,15.26
2023-01-03T04:34:00.658Z,15.19
2023-01-03T04:34:23.403Z,15.16
2023-01-03T04:34:45.105Z,15.19
2023-01-03T04:35:07.828Z,15.20
2023-01-03T04:35:29.702Z,15.21
2023-01-03T04:35:52.404Z,15.19
2023-01-03T04:36:14.181Z,15.16
2023-01-03T04:36:35.826Z,15.22
2023-01-03T04:36:57.444Z,15.22
2023-01-03T04:37:20.102Z,15.23
2023-01-03T04:37:41.773Z,15.20
2023-01-03T04:38:04.240Z,15.22
2023-01-03T04:38:26.873Z,15.21
2023-01-03T04:38:48.892Z,15.13
2023-01-03T04:39:10.714Z,15.20
2023-01-03T04:39:32.405Z,15.19
2023-01-03T04:39:55.140Z,15.16
2023-01-03T04:40:16.856Z,15.23
2023-01-03T04:40:38.826Z,15.24
2023-01-03T04:41:04.126Z,15.24
2023-01-03T04:41:25.872Z,15.26
2023-01-03T04:41:48.643Z,15.24
2023-01-03T04:42:25.150Z,15.13
2023-01-03T04:43:05.307Z,15.21
2023-01-03T04:43:45.571Z,15.23
2023-01-03T04:44:07.400Z,15.15
2023-01-03T04:44:29.110Z,15.18
2023-01-03T04:44:52.938Z,15.18
2023-01-03T04:45:15.070Z,15.21
2023-01-03T04:45:37.201Z,15.25
2023-01-03T04:46:00.224Z,15.23
2023-01-03T04:46:22.757Z,15.24
2023-01-03T04:46:52.286Z,15.26
2023-01-03T04:47:17.925Z,15.27
2023-01-03T04:47:42.477Z,15.27
2023-01-03T04:48:04.824Z,15.32
2023-01-03T04:48:26.852Z,15.34
2023-01-03T04:48:51.476Z,15.34
2023-01-03T04:49:15.688Z,15.32
2023-01-03T04:49:37.510Z,15.35
2023-01-03T04:50:01.256Z,15.24
2023-01-03T04:50:23.921Z,15.33
2023-01-03T04:50:56.145Z,15.35
2023-01-03T04:51:17.979Z,15.35
2023-01-03T04:51:39.871Z,15.37
2023-01-03T04:52:02.525Z,15.39
2023-01-03T04:52:24.433Z,15.37
2023-01-03T04:52:46.115Z,15.38
2023-01-03T04:53:08.637Z,15.37
2023-01-03T04:53:32.865Z,15.37
2023-01-03T04:53:58.196Z,15.31
2023-01-03T04:54:23.240Z,15.35
2023-01-03T04:54:44.929Z,15.38
2023-01-03T04:55:09.955Z,15.40
2023-01-03T04:55:32.835Z,15.44
2023-01-03T04:55:56.977Z,15.46
2023-01-03T04:56:24.168Z,15.47
2023-01-03T04:56:47.249Z,15.46
2023-01-03T04:57:11.732Z,15.43
2023-01-03T04:57:33.936Z,15.49
2023-01-03T04:58:01.483Z,15.47
2023-01-03T04:58:23.442Z,15.49
2023-01-03T04:58:46.365Z,15.53
2023-01-03T04:59:08.037Z,15.51
2023-01-03T04:59:31.817Z,15.51
2023-01-03T04:59:56.163Z,15.53
2023-01-03T05:00:19.560Z,15.54
2023-01-03T05:00:42.377Z,15.55
2023-01-03T05:01:08.173Z,15.55
2023-01-03T05:01:30.484Z,15.55
2023-01-03T05:01:53.319Z,15.57
2023-01-03T05:02:15.447Z,15.50
2023-01-03T05:02:39.557Z,15.55
2023-01-03T05:03:03.243Z,15.55
2023-01-03T05:03:28.026Z,15.58
2023-01-03T05:03:51.564Z,15.57
2023-01-03T05:04:15.174Z,15.52
2023-01-03T05:04:37.157Z,15.57
2023-01-03T05:04:58.952Z,15.59
2023-01-03T05:05:21.550Z,15.62
2023-01-03T05:05:43.333Z,15.63
2023-01-03T05:06:07.033Z,15.62
2023-01-03T05:06:29.284Z,15.60
2023-01-03T05:06:53.890Z,15.61
2023-01-03T05:07:15.533Z,15.62
2023-01-03T05:07:37.559Z,15.65
2023-01-03T05:07:59.197Z,15.65
2023-01-03T05:08:20.818Z,15.66
2023-01-03T05:08:44.611Z,15.68
2023-01-03T05:09:07.388Z,15.55
2023-01-03T05:09:29.350Z,15.64
2023-01-03T05:09:50.969Z,15.62
2023-01-03T05:10:12.570Z,15.49
2023-01-03T05:10:35.822Z,15.57
2023-01-03T05:10:57.461Z,15.55
2023-01-03T05:11:19.174Z,15.58
2023-01-03T05:11:40.860Z,15.45
2023-01-03T05:12:03.416Z,15.61
2023-01-03T05:12:25.597Z,15.60
2023-01-03T05:12:59.808Z,15.55
2023-01-03T05:13:21.973Z,15.59
2023-01-03T05:13:44.616Z,15.60
2023-01-03T05:14:10.774Z,15.63
2023-01-03T05:14:37.106Z,15.43
2023-01-03T05:14:58.792Z,15.63
2023-01-03T05:15:20.352Z,15.67
2023-01-03T05:15:44.056Z,15.61
2023-01-03T05:16:07.798Z,15.69
2023-01-03T05:16:29.975Z,15.66
2023-01-03T05:16:52.779Z,15.66
2023-01-03T05:17:14.662Z,15.65
2023-01-03T05:17:36.270Z,15.58
2023-01-03T05:17:58.202Z,15.66
2023-01-03T05:18:21.357Z,15.66
2023-01-03T05:18:43.975Z,15.67
2023-01-03T05:19:05.646Z,15.67
2023-01-03T05:19:27.250Z,15.61
2023-01-03T05:20:07.602Z,15.54
2023-01-03T05:20:47.667Z,15.66
2023-01-03T05:21:32.564Z,15.62
2023-01-03T05:22:12.579Z,15.57
2023-01-03T05:22:52.893Z,15.61
2023-01-03T05:23:35.085Z,15.62
2023-01-03T05:24:15.705Z,15.66
2023-01-03T05:24:55.745Z,15.66
2023-01-03T05:25:36.213Z,15.63
2023-01-03T05:25:59.495Z,15.65
2023-01-03T05:26:22.308Z,15.59
2023-01-03T05:26:44.971Z,15.62
2023-01-03T05:27:06.818Z,15.64
2023-01-03T05:27:29.468Z,15.66
2023-01-03T05:27:51.320Z,15.66
2023-01-03T05:28:17.261Z,15.68
2023-01-03T05:28:41.167Z,15.66
2023-01-03T05:29:02.771Z,15.66
2023-01-03T05:29:24.489Z,15.65
2023-01-03T05:29:50.779Z,15.69
2023-01-03T05:30:12.892Z,15.70
2023-01-03T05:30:34.518Z,15.69
2023-01-03T05:30:57.752Z,15.68
2023-01-03T05:31:20.737Z,15.68
2023-01-03T05:31:43.661Z,15.68
2023-01-03T05:32:05.882Z,15.64
2023-01-03T05:32:29.190Z,15.67
2023-01-03T05:32:50.787Z,15.62
2023-01-03T05:33:12.442Z,15.67
2023-01-03T05:33:38.629Z,15.66
2023-01-03T05:34:00.273Z,15.68
2023-01-03T05:34:22.081Z,15.57
2023-01-03T05:34:45.057Z,15.58
2023-01-03T05:35:07.162Z,15.61
2023-01-03T05:35:28.755Z,15.58
2023-01-03T05:35:50.863Z,15.60
2023-01-03T05:36:13.467Z,15.60
2023-01-03T05:36:35.097Z,15.61
2023-01-03T05:36:56.744Z,15.63